createdAt,value
2022-09-27T00:02:01.836Z,16.38
2022-09-27T00:04:30.142Z,16.63
2022-09-27T00:06:58.398Z,16.25
2022-09-27T00:09:26.631Z,16.25
2022-09-27T00:11:54.897Z,15.43
2022-09-27T00:14:23.111Z,16.30
2022-09-27T00:16:52.846Z,16.17
2022-09-27T00:19:23.911Z,16.45
2022-09-27T00:21:52.218Z,15.73
2022-09-27T00:24:21.919Z,16.23
2022-09-27T00:26:50.424Z,15.93
2022-09-27T00:29:19.498Z,15.43
2022-09-27T00:31:47.858Z,15.88
2022-09-27T00:34:20.587Z,15.50
2022-09-27T00:36:49.023Z,15.45
2022-09-27T00:39:17.342Z,15.18
2022-09-27T00:41:45.693Z,14.95
2022-09-27T00:44:59.545Z,14.70
2022-09-27T00:47:30.465Z,15.00
2022-09-27T00:50:01.589Z,15.32
2022-09-27T00:52:32.393Z,15.20
2022-09-27T00:55:02.286Z,14.88
2022-09-27T00:57:30.555Z,15.13
2022-09-27T01:00:01.034Z,14.93
2022-09-27T01:02:29.459Z,14.10
2022-09-27T01:05:00.043Z,15.45
2022-09-27T01:07:28.367Z,14.57
2022-09-27T01:09:56.592Z,14.07
2022-09-27T01:12:26.999Z,14.15
2022-09-27T01:15:05.845Z,13.95
2022-09-27T01:17:41.143Z,13.95
2022-09-27T01:20:39.139Z,13.88
2022-09-27T01:23:20.321Z,13.80
2022-09-27T01:25:55.599Z,13.55
2022-09-27T01:28:26.684Z,13.88
2022-09-27T01:30:58.731Z,13.68
2022-09-27T01:33:39.861Z,13.25
2022-09-27T01:36:21.210Z,13.18
2022-09-27T01:38:56.533Z,13.40
2022-09-27T01:41:30.811Z,13.40
2022-09-27T01:44:21.884Z,13.50
2022-09-27T01:46:56.989Z,13.40
2022-09-27T01:49:55.211Z,12.70
2022-09-27T01:52:25.408Z,12.90
2022-09-27T01:54:55.353Z,12.90
2022-09-27T01:57:57.348Z,13.02
2022-09-27T02:00:27.560Z,12.32
2022-09-27T02:03:00.089Z,12.05
2022-09-27T02:05:32.342Z,12.60
2022-09-27T02:08:09.618Z,12.23
2022-09-27T02:10:40.727Z,11.90
2022-09-27T02:13:18.883Z,12.20
2022-09-27T02:15:53.447Z,12.13
2022-09-27T02:18:35.221Z,12.20
2022-09-27T02:21:05.306Z,11.55
2022-09-27T02:23:36.962Z,11.23
2022-09-27T02:26:13.666Z,12.15
2022-09-27T02:28:43.939Z,11.70
2022-09-27T02:31:18.595Z,12.07
2022-09-27T02:33:49.328Z,11.52
2022-09-27T02:36:17.721Z,11.45
2022-09-27T02:38:46.144Z,11.45
2022-09-27T02:41:17.653Z,10.85
2022-09-27T02:43:46.259Z,11.10
2022-09-27T02:46:29.102Z,10.73
2022-09-27T02:49:03.064Z,10.02
2022-09-27T02:51:45.300Z,10.27
2022-09-27T02:54:18.497Z,10.88
2022-09-27T02:57:24.051Z,10.80
2022-09-27T03:00:15.638Z,10.77
2022-09-27T03:03:03.121Z,10.80
2022-09-27T03:05:55.478Z,10.52
2022-09-27T03:08:23.961Z,10.10
2022-09-27T03:10:52.202Z,10.07
2022-09-27T03:13:20.751Z,10.63
2022-09-27T03:15:49.409Z,10.30
2022-09-27T03:18:20.329Z,10.50
2022-09-27T03:20:48.670Z,10.38
2022-09-27T03:23:22.607Z,10.10
2022-09-27T03:25:51.885Z,9.85
2022-09-27T03:28:20.410Z,10.05
2022-09-27T03:30:49.407Z,9.77
2022-09-27T03:33:37.606Z,9.90
2022-09-27T03:36:09.918Z,10.38
2022-09-27T03:38:39.828Z,10.15
2022-09-27T03:41:12.083Z,9.60
2022-09-27T03:43:40.877Z,10.10
2022-09-27T03:46:09.200Z,8.98
2022-09-27T03:48:37.482Z,10.15
2022-09-27T03:51:05.909Z,9.63
2022-09-27T03:53:34.105Z,9.10
2022-09-27T03:56:04.033Z,9.43
2022-09-27T03:58:32.466Z,9.32
2022-09-27T04:01:00.976Z,9.02
2022-09-27T04:03:29.867Z,9.18
2022-09-27T04:06:27.208Z,9.00
2022-09-27T04:08:55.961Z,9.23
2022-09-27T04:11:29.938Z,8.82
2022-09-27T04:13:58.985Z,9.10
2022-09-27T04:16:27.748Z,9.20
2022-09-27T04:19:25.275Z,8.38
2022-09-27T04:22:13.925Z,8.38
2022-09-27T04:24:42.199Z,7.88
2022-09-27T04:27:25.654Z,8.02
2022-09-27T04:29:54.294Z,7.22
2022-09-27T04:32:43.218Z,7.38
2022-09-27T04:35:55.018Z,7.20
2022-09-27T04:38:24.217Z,7.63
2022-09-27T04:40:53.013Z,8.35
2022-09-27T04:43:23.035Z,7.68
2022-09-27T04:45:51.466Z,4.63
2022-09-27T04:48:19.791Z,4.53
2022-09-27T04:50:48.493Z,4.18
2022-09-27T04:53:16.891Z,7.30
2022-09-27T04:55:46.642Z,23.05
2022-09-27T04:58:14.910Z,27.90
2022-09-27T05:00:45.933Z,31.73
2022-09-27T05:03:35.395Z,37.60
2022-09-27T05:06:11.389Z,39.30
2022-09-27T05:08:39.826Z,40.08
2022-09-27T05:11:28.360Z,38.58
2022-09-27T05:14:15.159Z,38.20
2022-09-27T05:17:05.305Z,38.17
2022-09-27T05:19:52.505Z,37.47
2022-09-27T05:22:34.106Z,38.35
2022-09-27T05:25:02.787Z,39.00
2022-09-27T05:27:31.185Z,35.22
2022-09-27T05:30:00.620Z,35.63
2022-09-27T05:32:37.419Z,33.35
2022-09-27T05:35:31.874Z,34.88
2022-09-27T05:38:01.320Z,33.85
2022-09-27T05:40:47.890Z,34.03
2022-09-27T05:43:17.283Z,33.67
2022-09-27T05:45:46.050Z,34.10
2022-09-27T05:48:17.978Z,32.90
2022-09-27T05:50:54.163Z,31.80
2022-09-27T05:53:22.587Z,31.50
2022-09-27T05:55:51.007Z,31.13
2022-09-27T05:58:22.913Z,31.58
2022-09-27T06:00:59.541Z,30.50
2022-09-27T06:04:04.896Z,29.75
2022-09-27T06:06:59.131Z,30.38
2022-09-27T06:09:28.485Z,29.27
2022-09-27T06:11:57.859Z,27.85
2022-09-27T06:14:26.435Z,29.13
2022-09-27T06:17:00.610Z,28.67
2022-09-27T06:19:32.795Z,28.10
2022-09-27T06:22:01.354Z,26.65
2022-09-27T06:24:38.470Z,28.35
2022-09-27T06:27:12.725Z,26.65
2022-09-27T06:30:08.345Z,27.08
2022-09-27T06:32:48.681Z,25.85
2022-09-27T06:35:25.775Z,25.55
2022-09-27T06:37:54.177Z,25.92
2022-09-27T06:40:24.962Z,25.45
2022-09-27T06:43:15.014Z,24.77
2022-09-27T06:46:16.162Z,24.42
2022-09-27T06:49:07.686Z,22.90
2022-09-27T06:51:37.553Z,22.80
2022-09-27T06:54:06.420Z,24.02
2022-09-27T06:56:34.605Z,23.63
2022-09-27T06:59:31.566Z,22.35
2022-09-27T07:02:18.996Z,23.45
2022-09-27T07:05:10.344Z,23.05
2022-09-27T07:07:48.010Z,22.00
2022-09-27T07:10:18.247Z,22.70
2022-09-27T07:12:48.913Z,22.08
2022-09-27T07:15:18.776Z,21.90
2022-09-27T07:17:47.207Z,21.25
2022-09-27T07:20:17.341Z,21.70
2022-09-27T07:22:48.551Z,22.05
2022-09-27T07:25:16.834Z,21.38
2022-09-27T07:27:45.623Z,21.63
2022-09-27T07:30:14.426Z,20.80
2022-09-27T07:32:43.649Z,20.70
2022-09-27T07:35:12.163Z,20.95
2022-09-27T07:37:40.451Z,19.95
2022-09-27T07:40:11.587Z,19.73
2022-09-27T07:42:41.358Z,20.13
2022-09-27T07:45:11.488Z,20.83
2022-09-27T07:48:02.918Z,19.88
2022-09-27T07:50:54.190Z,19.23
2022-09-27T07:53:42.763Z,19.75
2022-09-27T07:56:30.882Z,19.05
2022-09-27T07:58:59.803Z,19.35
2022-09-27T08:01:28.260Z,19.50
2022-09-27T08:03:58.628Z,19.35
2022-09-27T08:06:27.535Z,19.00
2022-09-27T08:08:57.837Z,18.98
2022-09-27T08:11:27.647Z,19.00
2022-09-27T08:13:57.482Z,19.42
2022-09-27T08:16:30.713Z,18.98
2022-09-27T08:19:22.283Z,18.05
2022-09-27T08:22:14.187Z,17.35
2022-09-27T08:25:05.806Z,18.30
2022-09-27T08:27:57.834Z,18.00
2022-09-27T08:30:47.981Z,18.13
2022-09-27T08:33:16.260Z,17.80
2022-09-27T08:35:44.982Z,17.42
2022-09-27T08:38:13.854Z,17.33
2022-09-27T08:40:50.763Z,17.63
2022-09-27T08:43:24.422Z,18.60
2022-09-27T08:46:04.081Z,19.23
2022-09-27T08:48:35.190Z,18.70
2022-09-27T08:51:06.003Z,18.35
2022-09-27T08:53:35.468Z,18.15
2022-09-27T08:56:04.465Z,18.48
2022-09-27T08:58:42.479Z,18.17
2022-09-27T09:01:20.467Z,17.95
2022-09-27T09:04:04.457Z,18.23
2022-09-27T09:06:36.488Z,18.63
2022-09-27T09:09:07.695Z,21.48
2022-09-27T09:12:04.454Z,21.15
2022-09-27T09:14:54.446Z,22.40
2022-09-27T09:17:30.603Z,26.02
2022-09-27T09:20:37.439Z,23.83
2022-09-27T09:23:26.934Z,24.27
2022-09-27T09:26:00.011Z,25.55
2022-09-27T09:28:34.593Z,25.40
2022-09-27T09:31:06.370Z,24.17
2022-09-27T09:33:38.210Z,24.60
2022-09-27T09:36:07.807Z,26.02
2022-09-27T09:38:38.668Z,25.20
2022-09-27T09:41:09.119Z,24.85
2022-09-27T09:43:39.778Z,25.13
2022-09-27T09:46:12.638Z,24.50
2022-09-27T09:48:43.919Z,25.17
2022-09-27T09:51:16.439Z,24.63
2022-09-27T09:53:48.051Z,24.25
2022-09-27T09:56:23.698Z,24.35
2022-09-27T09:58:56.076Z,23.33
2022-09-27T10:01:34.527Z,23.15
2022-09-27T10:04:04.526Z,23.60
2022-09-27T10:06:33.414Z,22.90
2022-09-27T10:09:03.666Z,23.50
2022-09-27T10:11:48.207Z,23.48
2022-09-27T10:14:31.755Z,23.02
2022-09-27T10:17:06.526Z,22.45
2022-09-27T10:19:37.445Z,22.13
2022-09-27T10:22:13.580Z,22.05
2022-09-27T10:24:54.760Z,22.60
2022-09-27T10:27:41.086Z,22.38
2022-09-27T10:30:25.240Z,22.23
2022-09-27T10:32:54.437Z,22.55
2022-09-27T10:35:42.117Z,21.52
2022-09-27T10:38:25.922Z,21.20
2022-09-27T10:41:00.181Z,21.52
2022-09-27T10:43:32.288Z,22.02
2022-09-27T10:46:21.059Z,21.48
2022-09-27T10:49:09.415Z,21.80
2022-09-27T10:51:39.190Z,20.33
2022-09-27T10:54:07.792Z,21.02
2022-09-27T10:56:37.017Z,20.35
2022-09-27T10:59:06.349Z,20.95
2022-09-27T11:01:42.356Z,20.83
2022-09-27T11:04:32.257Z,20.65
2022-09-27T11:07:15.530Z,20.42
2022-09-27T11:09:48.714Z,20.45
2022-09-27T11:12:20.808Z,20.38
2022-09-27T11:14:54.637Z,20.42
2022-09-27T11:17:27.850Z,20.23
2022-09-27T11:20:24.322Z,19.10
2022-09-27T11:23:30.148Z,19.48
2022-09-27T11:26:24.156Z,19.77
2022-09-27T11:28:57.295Z,18.95
2022-09-27T11:31:51.022Z,18.67
2022-09-27T11:34:34.274Z,19.92
2022-09-27T11:37:09.473Z,18.98
2022-09-27T11:39:44.943Z,19.42
2022-09-27T11:42:25.146Z,18.98
2022-09-27T11:47:55.394Z,17.60
2022-09-27T11:51:09.369Z,18.67
2022-09-27T11:53:50.194Z,17.60
2022-09-27T11:56:28.845Z,17.55
2022-09-27T11:59:07.850Z,17.27
2022-09-27T12:01:39.605Z,15.95
2022-09-27T12:04:20.379Z,16.90
2022-09-27T12:06:52.291Z,17.67
2022-09-27T12:09:21.729Z,21.05
2022-09-27T12:11:52.933Z,19.55
2022-09-27T12:14:26.933Z,22.15
2022-09-27T12:16:57.017Z,22.15
2022-09-27T12:19:27.978Z,25.88
2022-09-27T12:22:09.051Z,22.30
2022-09-27T12:24:41.832Z,22.10
2022-09-27T12:27:35.910Z,20.35
2022-09-27T12:30:06.519Z,21.67
2022-09-27T12:32:38.874Z,21.88
2022-09-27T12:35:11.818Z,21.30
2022-09-27T12:37:42.360Z,21.17
2022-09-27T12:40:16.854Z,20.98
2022-09-27T12:42:49.247Z,20.90
2022-09-27T12:45:31.503Z,21.35
2022-09-27T12:48:04.654Z,20.05
2022-09-27T12:50:37.012Z,17.85
2022-09-27T12:53:09.579Z,18.85
2022-09-27T12:55:53.415Z,18.13
2022-09-27T12:58:36.166Z,17.40
2022-09-27T13:01:07.389Z,18.15
2022-09-27T13:03:43.544Z,17.88
2022-09-27T13:06:41.046Z,18.92
2022-09-27T13:09:41.004Z,17.80
2022-09-27T13:12:11.156Z,17.45
2022-09-27T13:14:45.318Z,17.45
2022-09-27T13:17:50.977Z,18.17
2022-09-27T13:20:48.339Z,17.80
2022-09-27T13:24:01.131Z,17.58
2022-09-27T13:26:50.340Z,16.95
2022-09-27T13:29:29.576Z,16.73
2022-09-27T13:32:28.503Z,16.80
2022-09-27T13:35:20.534Z,16.60
2022-09-27T13:37:57.026Z,17.23
2022-09-27T13:40:33.764Z,16.30
2022-09-27T13:43:43.365Z,16.13
2022-09-27T13:46:29.763Z,15.95
2022-09-27T13:49:02.208Z,15.73
2022-09-27T13:51:51.716Z,15.73
2022-09-27T13:54:50.921Z,15.27
2022-09-27T13:57:43.238Z,15.25
2022-09-27T14:00:16.270Z,15.30
2022-09-27T14:02:59.611Z,15.50
2022-09-27T14:05:34.101Z,15.52
2022-09-27T14:08:03.607Z,15.18
2022-09-27T14:10:32.391Z,15.00
2022-09-27T14:13:02.448Z,15.02
2022-09-27T14:15:31.683Z,15.73
2022-09-27T14:18:02.659Z,17.45
2022-09-27T14:20:34.459Z,18.08
2022-09-27T14:23:04.609Z,17.88
2022-09-27T14:25:40.602Z,17.83
2022-09-27T14:28:21.103Z,18.35
2022-09-27T14:31:16.660Z,17.80
2022-09-27T14:34:06.097Z,17.52
2022-09-27T14:36:53.453Z,18.25
2022-09-27T14:39:24.422Z,17.65
2022-09-27T14:41:55.621Z,16.50
2022-09-27T14:44:28.041Z,17.23
2022-09-27T14:47:10.406Z,18.17
2022-09-27T14:49:41.248Z,17.05
2022-09-27T14:52:19.310Z,16.45
2022-09-27T14:54:56.949Z,17.20
2022-09-27T14:57:25.477Z,16.73
2022-09-27T14:59:54.033Z,15.95
2022-09-27T15:02:23.746Z,16.27
2022-09-27T15:04:51.981Z,16.85
2022-09-27T15:07:22.653Z,16.25
2022-09-27T15:09:51.317Z,16.13
2022-09-27T15:12:25.510Z,16.65
2022-09-27T15:14:55.097Z,16.13
2022-09-27T15:17:23.514Z,15.82
2022-09-27T15:19:58.925Z,15.70
2022-09-27T15:22:45.081Z,15.88
2022-09-27T15:25:22.206Z,15.93
2022-09-27T15:27:52.221Z,15.15
2022-09-27T15:30:21.915Z,15.80
2022-09-27T15:32:51.531Z,15.10
2022-09-27T15:35:23.470Z,15.45
2022-09-27T15:37:53.694Z,14.68
2022-09-27T15:41:09.761Z,15.65
2022-09-27T15:43:40.661Z,15.48
2022-09-27T15:46:28.406Z,14.57
2022-09-27T15:49:18.759Z,14.55
2022-09-27T15:51:47.829Z,15.50
2022-09-27T15:54:18.882Z,14.40
2022-09-27T15:56:47.303Z,14.20
2022-09-27T15:59:20.394Z,14.52
2022-09-27T16:01:49.436Z,14.23
2022-09-27T16:04:17.779Z,14.60
2022-09-27T16:06:46.262Z,13.80
2022-09-27T16:09:20.855Z,14.23
2022-09-27T16:11:49.426Z,12.57
2022-09-27T16:14:18.774Z,13.00
2022-09-27T16:16:47.694Z,15.15
2022-09-27T16:19:15.995Z,22.23
2022-09-27T16:21:44.318Z,18.95
2022-09-27T16:24:12.994Z,20.55
2022-09-27T16:26:42.773Z,20.63
2022-09-27T16:29:11.998Z,20.20
2022-09-27T16:31:45.126Z,20.13
2022-09-27T16:34:13.827Z,22.02
2022-09-27T16:36:42.026Z,23.48
2022-09-27T16:39:13.315Z,21.58
2022-09-27T16:41:43.877Z,21.10
2022-09-27T16:44:13.553Z,22.55
2022-09-27T16:46:42.179Z,21.90
2022-09-27T16:49:30.679Z,22.35
2022-09-27T16:52:02.056Z,21.85
2022-09-27T16:54:31.026Z,22.15
2022-09-27T16:57:01.019Z,21.08
2022-09-27T16:59:29.629Z,20.77
2022-09-27T17:01:58.367Z,21.13
2022-09-27T17:04:27.576Z,20.55
2022-09-27T17:06:55.918Z,21.10
2022-09-27T17:09:24.089Z,25.17
2022-09-27T17:11:52.741Z,28.35
2022-09-27T17:14:23.307Z,26.20
2022-09-27T17:16:52.723Z,26.80
2022-09-27T17:19:22.099Z,26.15
2022-09-27T17:21:50.403Z,25.40
2022-09-27T17:24:18.738Z,23.98
2022-09-27T17:26:47.291Z,23.85
2022-09-27T17:29:15.815Z,23.83
2022-09-27T17:31:46.362Z,23.52
2022-09-27T17:34:15.744Z,22.90
2022-09-27T17:36:48.394Z,22.48
2022-09-27T17:39:17.614Z,21.80
2022-09-27T17:41:45.759Z,22.40
2022-09-27T17:44:14.961Z,21.27
2022-09-27T17:46:43.535Z,19.63
2022-09-27T17:49:30.641Z,20.15
2022-09-27T17:51:59.037Z,20.40
2022-09-27T17:54:28.000Z,19.52
2022-09-27T17:56:56.672Z,20.13
2022-09-27T17:59:24.857Z,18.95
2022-09-27T18:01:53.725Z,18.67
2022-09-27T18:04:23.461Z,18.27
2022-09-27T18:06:51.758Z,18.70
2022-09-27T18:09:20.845Z,18.00
2022-09-27T18:11:49.594Z,18.20
2022-09-27T18:14:18.187Z,17.35
2022-09-27T18:16:46.580Z,17.75
2022-09-27T18:19:16.643Z,17.90
2022-09-27T18:21:46.810Z,17.05
2022-09-27T18:24:15.323Z,16.90
2022-09-27T18:26:44.301Z,16.73
2022-09-27T18:29:14.303Z,17.10
2022-09-27T18:31:47.511Z,16.50
2022-09-27T18:34:16.864Z,15.27
2022-09-27T18:36:47.319Z,15.55
2022-09-27T18:39:18.303Z,14.80
2022-09-27T18:41:48.011Z,15.27
2022-09-27T18:44:16.663Z,15.32
2022-09-27T18:46:45.451Z,14.95
2022-09-27T18:49:14.960Z,15.10
2022-09-27T18:51:44.908Z,14.65
2022-09-27T18:54:17.272Z,14.32
2022-09-27T18:56:45.686Z,14.90
2022-09-27T18:59:14.016Z,15.40
2022-09-27T19:01:45.599Z,15.18
2022-09-27T19:04:14.966Z,16.70
2022-09-27T19:06:43.506Z,17.17
2022-09-27T19:09:12.296Z,18.00
2022-09-27T19:11:41.949Z,18.48
2022-09-27T19:14:14.347Z,18.88
2022-09-27T19:16:42.843Z,19.50
2022-09-27T19:19:11.040Z,19.35
2022-09-27T19:21:39.187Z,22.02
2022-09-27T19:24:07.879Z,21.90
2022-09-27T19:26:36.120Z,21.33
2022-09-27T19:29:06.599Z,24.63
2022-09-27T19:31:36.062Z,33.45
2022-09-27T19:34:04.487Z,36.95
2022-09-27T19:36:32.723Z,36.25
2022-09-27T19:39:02.407Z,37.40
2022-09-27T19:41:30.741Z,38.90
2022-09-27T19:44:00.110Z,38.50
2022-09-27T19:46:30.262Z,37.88
2022-09-27T19:48:59.094Z,39.17
2022-09-27T19:51:28.224Z,38.80
2022-09-27T19:53:57.225Z,37.95
2022-09-27T19:56:26.069Z,37.65
2022-09-27T19:58:54.797Z,38.60
2022-09-27T20:01:23.851Z,36.85
2022-09-27T20:03:55.399Z,35.30
2022-09-27T20:06:23.687Z,34.78
2022-09-27T20:08:51.922Z,33.75
2022-09-27T20:11:21.008Z,32.42
2022-09-27T20:13:49.309Z,31.35
2022-09-27T20:16:18.363Z,31.73
2022-09-27T20:18:47.506Z,31.85
2022-09-27T20:21:17.457Z,30.95
2022-09-27T20:23:45.840Z,30.35
2022-09-27T20:26:15.387Z,30.13
2022-09-27T20:28:44.100Z,31.30
2022-09-27T20:31:12.871Z,29.05
2022-09-27T20:33:44.124Z,29.58
2022-09-27T20:36:13.671Z,30.92
2022-09-27T20:38:43.530Z,31.05
2022-09-27T20:41:11.820Z,29.80
2022-09-27T20:43:40.234Z,28.13
2022-09-27T20:46:09.171Z,27.80
2022-09-27T20:48:37.662Z,29.13
2022-09-27T20:51:05.995Z,27.70
2022-09-27T20:53:34.402Z,29.20
2022-09-27T20:56:04.427Z,28.73
2022-09-27T20:58:33.021Z,30.10
2022-09-27T21:01:06.179Z,29.50
2022-09-27T21:03:34.579Z,29.08
2022-09-27T21:06:03.936Z,30.38
2022-09-27T21:08:33.313Z,29.55
2022-09-27T21:11:07.730Z,29.73
2022-09-27T21:13:36.058Z,29.10
2022-09-27T21:16:07.477Z,30.08
2022-09-27T21:18:35.854Z,30.35
2022-09-27T21:21:05.142Z,31.35
2022-09-27T21:23:34.062Z,31.55
2022-09-27T21:26:03.563Z,30.98
2022-09-27T21:28:36.808Z,30.63
2022-09-27T21:31:06.192Z,30.88
2022-09-27T21:33:34.450Z,30.48
2022-09-27T21:36:03.501Z,31.13
2022-09-27T21:38:32.182Z,30.80
2022-09-27T21:41:04.178Z,30.00
2022-09-27T21:43:33.194Z,29.77
2022-09-27T21:46:07.028Z,30.40
2022-09-27T21:48:35.601Z,30.30
2022-09-27T21:51:08.083Z,30.20
2022-09-27T21:53:36.639Z,29.30
2022-09-27T21:56:05.165Z,29.27
2022-09-27T21:58:34.377Z,29.48
2022-09-27T22:01:09.657Z,29.38
2022-09-27T22:03:37.999Z,29.67
2022-09-27T22:06:06.757Z,29.00
2022-09-27T22:08:35.120Z,28.88
2022-09-27T22:11:03.274Z,29.85
2022-09-27T22:13:31.506Z,28.65
2022-09-27T22:16:03.913Z,28.83
2022-09-27T22:18:35.476Z,28.42
2022-09-27T22:21:04.413Z,28.20
2022-09-27T22:23:33.107Z,28.25
2022-09-27T22:26:01.462Z,27.88
2022-09-27T22:28:29.683Z,29.23
2022-09-27T22:30:57.941Z,27.60
2022-09-27T22:33:26.181Z,29.05
2022-09-27T22:35:55.807Z,26.92
2022-09-27T22:38:24.173Z,28.10
2022-09-27T22:40:56.423Z,26.90
2022-09-27T22:43:24.917Z,26.60
2022-09-27T22:45:53.082Z,27.40
2022-09-27T22:48:21.354Z,27.13
2022-09-27T22:50:49.554Z,26.08
2022-09-27T22:53:19.301Z,25.90
2022-09-27T22:55:59.731Z,25.80
2022-09-27T22:58:31.660Z,25.48
2022-09-27T23:01:00.340Z,25.95
2022-09-27T23:03:28.704Z,25.00
2022-09-27T23:06:03.238Z,25.02
2022-09-27T23:08:36.323Z,24.73
2022-09-27T23:11:05.665Z,24.77
2022-09-27T23:13:34.286Z,24.52
2022-09-27T23:16:03.471Z,24.13
2022-09-27T23:18:31.643Z,23.80
2022-09-27T23:21:03.462Z,22.95
2022-09-27T23:23:32.246Z,23.70
2022-09-27T23:26:04.610Z,22.85
2022-09-27T23:28:33.161Z,23.42
2022-09-27T23:31:08.129Z,22.30
2022-09-27T23:33:36.990Z,23.08
2022-09-27T23:36:05.375Z,22.23
2022-09-27T23:38:33.950Z,22.60
2022-09-27T23:41:03.611Z,22.20
2022-09-27T23:43:31.883Z,21.50
2022-09-27T23:46:00.152Z,22.23
2022-09-27T23:48:28.381Z,21.98
2022-09-27T23:50:56.887Z,22.30
2022-09-27T23:53:25.253Z,21.02
2022-09-27T23:56:02.401Z,21.05
2022-09-27T23:58:33.738Z,20.25
